createdAt,value
2023-04-05T00:00:22.792Z,2.08
2023-04-05T00:02:49.512Z,2.17
2023-04-05T00:05:29.287Z,2.30
2023-04-05T00:08:00.728Z,2.00
2023-04-05T00:10:28.520Z,1.95
2023-04-05T00:12:55.096Z,2.10
2023-04-05T00:15:22.180Z,1.98
2023-04-05T00:17:48.793Z,2.10
2023-04-05T00:20:15.421Z,1.83
2023-04-05T00:22:46.520Z,2.33
2023-04-05T00:25:13.094Z,2.35
2023-04-05T00:27:43.383Z,2.00
2023-04-05T00:30:10.565Z,1.73
2023-04-05T00:32:37.504Z,1.90
2023-04-05T00:35:04.559Z,2.25
2023-04-05T00:37:31.840Z,1.83
2023-04-05T00:39:58.461Z,1.65
2023-04-05T00:42:25.235Z,1.88
2023-04-05T00:44:51.833Z,1.60
2023-04-05T00:47:18.495Z,1.67
2023-04-05T00:49:45.868Z,2.00
2023-04-05T00:52:13.055Z,1.60
2023-04-05T00:54:39.868Z,1.95
2023-04-05T00:57:07.135Z,1.90
2023-04-05T00:59:33.871Z,1.70
2023-04-05T01:02:05.019Z,2.20
2023-04-05T01:04:36.736Z,1.58
2023-04-05T01:07:17.246Z,1.70
2023-04-05T01:10:05.751Z,1.63
2023-04-05T01:12:34.238Z,1.67
2023-04-05T01:15:03.588Z,1.50
2023-04-05T01:17:36.607Z,1.50
2023-04-05T01:20:13.252Z,1.88
2023-04-05T01:23:11.820Z,1.42
2023-04-05T01:26:00.019Z,1.95
2023-04-05T01:29:04.909Z,1.83
2023-04-05T01:31:46.186Z,1.55
2023-04-05T01:34:37.560Z,2.05
2023-04-05T01:37:09.038Z,1.88
2023-04-05T01:39:36.723Z,1.90
2023-04-05T01:42:05.132Z,1.90
2023-04-05T01:44:31.801Z,1.55
2023-04-05T01:46:58.452Z,1.60
2023-04-05T01:49:25.502Z,1.50
2023-04-05T01:51:52.463Z,1.65
2023-04-05T01:54:19.033Z,1.80
2023-04-05T01:56:46.174Z,1.75
2023-04-05T01:59:12.747Z,1.92
2023-04-05T02:01:39.374Z,1.92
2023-04-05T02:04:06.070Z,1.73
2023-04-05T02:06:32.827Z,1.88
2023-04-05T02:09:01.625Z,1.90
2023-04-05T02:11:28.283Z,1.65
2023-04-05T02:13:58.437Z,1.77
2023-04-05T02:16:27.304Z,1.75
2023-04-05T02:18:57.940Z,1.70
2023-04-05T02:21:26.114Z,2.33
2023-04-05T02:23:53.667Z,1.85
2023-04-05T02:26:21.380Z,2.00
2023-04-05T02:28:48.051Z,1.90
2023-04-05T02:31:14.997Z,2.08
2023-04-05T02:33:42.830Z,1.95
2023-04-05T02:36:12.654Z,2.00
2023-04-05T02:38:39.178Z,2.10
2023-04-05T02:41:09.981Z,1.70
2023-04-05T02:43:38.275Z,1.92
2023-04-05T02:46:05.003Z,1.80
2023-04-05T02:48:33.592Z,1.90
2023-04-05T02:51:01.578Z,2.00
2023-04-05T02:53:29.104Z,1.90
2023-04-05T02:56:00.419Z,2.08
2023-04-05T02:58:28.517Z,2.15
2023-04-05T03:00:56.211Z,2.30
2023-04-05T03:03:29.877Z,1.90
2023-04-05T03:06:07.184Z,2.25
2023-04-05T03:08:44.085Z,2.75
2023-04-05T03:11:13.245Z,2.40
2023-04-05T03:13:43.529Z,2.33
2023-04-05T03:16:17.684Z,2.53
2023-04-05T03:18:44.519Z,2.08
2023-04-05T03:21:11.686Z,1.73
2023-04-05T03:23:48.486Z,1.95
2023-04-05T03:26:18.615Z,2.10
2023-04-05T03:28:49.934Z,2.15
2023-04-05T03:31:20.118Z,1.90
2023-04-05T03:33:48.280Z,2.15
2023-04-05T03:36:16.670Z,2.28
2023-04-05T03:38:46.047Z,2.28
2023-04-05T03:41:19.659Z,1.98
2023-04-05T03:43:46.289Z,1.75
2023-04-05T03:46:13.003Z,2.47
2023-04-05T03:48:39.578Z,2.20
2023-04-05T03:51:06.924Z,2.28
2023-04-05T03:53:33.777Z,2.15
2023-04-05T03:56:01.965Z,2.35
2023-04-05T03:58:46.207Z,2.30
2023-04-05T04:01:13.658Z,1.80
2023-04-05T04:03:40.313Z,2.33
2023-04-05T04:06:08.082Z,2.08
2023-04-05T04:08:34.863Z,2.22
2023-04-05T04:11:01.526Z,1.98
2023-04-05T04:13:32.380Z,2.55
2023-04-05T04:16:28.930Z,2.10
2023-04-05T04:19:14.306Z,2.40
2023-04-05T04:21:59.694Z,2.72
2023-04-05T04:24:50.623Z,2.80
2023-04-05T04:27:39.415Z,2.15
2023-04-05T04:30:26.180Z,2.15
2023-04-05T04:33:11.632Z,2.00
2023-04-05T04:35:47.251Z,2.13
2023-04-05T04:38:48.734Z,1.88
2023-04-05T04:41:47.139Z,2.38
2023-04-05T04:44:36.728Z,2.03
2023-04-05T04:47:21.709Z,2.00
2023-04-05T04:50:16.155Z,2.20
2023-04-05T04:52:42.792Z,2.42
2023-04-05T04:55:10.165Z,1.90
2023-04-05T04:57:36.720Z,2.35
2023-04-05T05:00:08.055Z,2.25
2023-04-05T05:02:34.921Z,2.60
2023-04-05T05:05:01.470Z,2.35
2023-04-05T05:07:29.026Z,2.00
2023-04-05T05:09:55.779Z,2.70
2023-04-05T05:12:22.609Z,2.70
2023-04-05T05:14:49.170Z,2.42
2023-04-05T05:17:15.758Z,2.45
2023-04-05T05:19:42.291Z,2.47
2023-04-05T05:22:08.812Z,2.65
2023-04-05T05:24:35.391Z,3.17
2023-04-05T05:27:01.943Z,3.63
2023-04-05T05:29:28.945Z,3.03
2023-04-05T05:31:55.788Z,3.03
2023-04-05T05:34:23.606Z,2.88
2023-04-05T05:36:57.520Z,2.60
2023-04-05T05:39:24.262Z,2.90
2023-04-05T05:41:50.951Z,2.78
2023-04-05T05:44:17.529Z,3.70
2023-04-05T05:46:44.082Z,3.83
2023-04-05T05:49:10.721Z,3.67
2023-04-05T05:51:37.266Z,3.15
2023-04-05T05:54:03.782Z,2.95
2023-04-05T05:56:30.468Z,2.97
2023-04-05T05:58:57.056Z,2.70
2023-04-05T06:01:27.574Z,2.95
2023-04-05T06:03:54.551Z,3.08
2023-04-05T06:06:22.028Z,3.30
2023-04-05T06:08:49.460Z,2.88
2023-04-05T06:11:21.538Z,3.35
2023-04-05T06:13:49.768Z,2.97
2023-04-05T06:16:16.325Z,2.90
2023-04-05T06:18:43.353Z,2.80
2023-04-05T06:21:10.112Z,2.88
2023-04-05T06:23:36.937Z,2.40
2023-04-05T06:26:03.547Z,2.78
2023-04-05T06:28:30.053Z,2.88
2023-04-05T06:30:58.958Z,3.15
2023-04-05T06:33:26.211Z,3.22
2023-04-05T06:35:53.095Z,3.13
2023-04-05T06:38:19.737Z,3.17
2023-04-05T06:40:46.263Z,3.10
2023-04-05T06:43:12.808Z,3.63
2023-04-05T06:45:39.282Z,3.47
2023-04-05T06:48:06.065Z,3.88
2023-04-05T06:50:32.754Z,3.75
2023-04-05T06:52:59.296Z,4.03
2023-04-05T06:55:25.805Z,3.90
2023-04-05T06:57:52.314Z,4.03
2023-04-05T07:00:19.109Z,3.85
2023-04-05T07:02:45.795Z,3.72
2023-04-05T07:05:12.536Z,4.05
2023-04-05T07:07:44.369Z,4.22
2023-04-05T07:10:11.506Z,4.00
2023-04-05T07:12:39.121Z,4.10
2023-04-05T07:15:06.696Z,3.33
2023-04-05T07:17:33.175Z,3.70
2023-04-05T07:19:59.643Z,3.85
2023-04-05T07:22:26.178Z,3.28
2023-04-05T07:24:53.360Z,4.00
2023-04-05T07:27:20.086Z,3.85
2023-04-05T07:29:48.313Z,20.98
2023-04-05T07:32:15.197Z,4.97
2023-04-05T07:34:42.113Z,14.25
2023-04-05T07:37:08.706Z,10.07
2023-04-05T07:39:35.959Z,4.00
2023-04-05T07:42:02.993Z,4.30
2023-04-05T07:44:29.475Z,8.18
2023-04-05T07:46:56.172Z,5.68
2023-04-05T07:49:28.616Z,4.78
2023-04-05T07:51:56.469Z,4.88
2023-04-05T07:54:23.622Z,4.40
2023-04-05T07:56:51.054Z,4.80
2023-04-05T07:59:17.880Z,6.20
2023-04-05T08:01:44.390Z,4.72
2023-04-05T08:04:10.983Z,4.70
2023-04-05T08:06:37.623Z,4.47
2023-04-05T08:09:05.744Z,9.45
2023-04-05T08:11:32.541Z,4.78
2023-04-05T08:13:58.990Z,5.70
2023-04-05T08:16:25.741Z,4.63
2023-04-05T08:18:52.269Z,4.88
2023-04-05T08:21:19.037Z,4.32
2023-04-05T08:23:45.544Z,4.30
2023-04-05T08:26:12.172Z,4.50
2023-04-05T08:28:38.699Z,4.53
2023-04-05T08:31:05.318Z,4.45
2023-04-05T08:33:31.893Z,4.78
2023-04-05T08:36:03.475Z,3.97
2023-04-05T08:38:29.985Z,4.75
2023-04-05T08:41:06.584Z,4.28
2023-04-05T08:44:00.096Z,4.55
2023-04-05T08:46:27.846Z,4.00
2023-04-05T08:48:54.473Z,4.18
2023-04-05T08:51:21.756Z,3.60
2023-04-05T08:53:49.060Z,4.30
2023-04-05T08:56:18.993Z,2.85
2023-04-05T08:58:58.088Z,3.00
2023-04-05T09:01:28.288Z,2.72
2023-04-05T09:03:57.167Z,2.95
2023-04-05T09:06:24.346Z,2.20
2023-04-05T09:08:51.385Z,2.20
2023-04-05T09:11:18.653Z,2.00
2023-04-05T09:13:45.273Z,2.03
2023-04-05T09:16:14.465Z,2.28
2023-04-05T09:18:42.086Z,2.13
2023-04-05T09:21:11.037Z,1.40
2023-04-05T09:23:38.175Z,2.22
2023-04-05T09:26:23.953Z,1.48
2023-04-05T09:28:54.782Z,2.17
2023-04-05T09:31:35.914Z,1.90
2023-04-05T09:34:08.861Z,2.40
2023-04-05T09:36:35.871Z,2.25
2023-04-05T09:39:10.053Z,1.90
2023-04-05T09:41:37.139Z,1.83
2023-04-05T09:44:03.913Z,1.50
2023-04-05T09:46:37.219Z,1.77
2023-04-05T09:49:04.214Z,1.92
2023-04-05T09:51:35.421Z,1.55
2023-04-05T09:54:06.357Z,1.90
2023-04-05T09:56:38.064Z,1.70
2023-04-05T09:59:10.875Z,1.70
2023-04-05T10:01:44.129Z,1.55
2023-04-05T10:04:11.050Z,1.40
2023-04-05T10:06:43.788Z,1.52
2023-04-05T10:09:11.846Z,1.50
2023-04-05T10:11:39.011Z,1.30
2023-04-05T10:14:08.265Z,1.60
2023-04-05T10:17:16.633Z,1.33
2023-04-05T10:19:58.112Z,1.80
2023-04-05T10:22:33.852Z,1.40
2023-04-05T10:25:08.232Z,1.58
2023-04-05T10:27:48.546Z,1.65
2023-04-05T10:30:16.494Z,1.65
2023-04-05T10:32:52.272Z,1.77
2023-04-05T10:35:34.702Z,2.00
2023-04-05T10:38:12.703Z,1.70
2023-04-05T10:40:43.508Z,1.52
2023-04-05T10:43:17.438Z,2.05
2023-04-05T10:45:46.542Z,1.33
2023-04-05T10:48:33.878Z,1.60
2023-04-05T10:51:01.368Z,1.65
2023-04-05T10:53:30.722Z,1.70
2023-04-05T10:55:58.847Z,1.75
2023-04-05T10:58:26.531Z,1.60
2023-04-05T11:00:54.816Z,1.70
2023-04-05T11:03:50.396Z,1.70
2023-04-05T11:06:22.266Z,1.90
2023-04-05T11:08:52.805Z,1.50
2023-04-05T11:11:21.413Z,1.55
2023-04-05T11:13:53.779Z,1.73
2023-04-05T11:16:21.428Z,1.88
2023-04-05T11:18:50.433Z,1.88
2023-04-05T11:21:25.047Z,2.00
2023-04-05T11:24:16.127Z,1.70
2023-04-05T11:26:42.648Z,1.50
2023-04-05T11:29:09.930Z,2.15
2023-04-05T11:31:36.857Z,2.00
2023-04-05T11:34:10.448Z,1.70
2023-04-05T11:36:48.241Z,2.20
2023-04-05T11:39:23.794Z,2.10
2023-04-05T11:41:58.945Z,2.08
2023-04-05T11:44:25.586Z,1.83
2023-04-05T11:46:55.880Z,2.22
2023-04-05T11:49:26.737Z,2.40
2023-04-05T11:51:54.062Z,2.70
2023-04-05T11:54:31.155Z,1.85
2023-04-05T11:56:57.840Z,1.98
2023-04-05T11:59:35.457Z,1.70
2023-04-05T12:02:05.620Z,1.63
2023-04-05T12:04:32.370Z,1.83
2023-04-05T12:07:08.597Z,2.10
2023-04-05T12:09:35.246Z,2.05
2023-04-05T12:12:02.127Z,1.98
2023-04-05T12:14:28.662Z,1.85
2023-04-05T12:16:55.207Z,1.90
2023-04-05T12:19:22.913Z,1.98
2023-04-05T12:21:49.614Z,1.75
2023-04-05T12:24:16.200Z,2.10
2023-04-05T12:26:43.052Z,2.25
2023-04-05T12:29:09.547Z,2.15
2023-04-05T12:31:39.961Z,2.17
2023-04-05T12:34:07.228Z,2.03
2023-04-05T12:36:34.180Z,2.20
2023-04-05T12:39:02.003Z,1.90
2023-04-05T12:41:32.857Z,1.85
2023-04-05T12:44:04.878Z,2.05
2023-04-05T12:46:42.152Z,1.70
2023-04-05T12:49:16.061Z,2.20
2023-04-05T12:51:44.026Z,2.00
2023-04-05T12:54:23.618Z,1.83
2023-04-05T12:56:52.875Z,1.83
2023-04-05T12:59:19.568Z,1.98
2023-04-05T13:01:46.168Z,1.95
2023-04-05T13:04:16.566Z,1.70
2023-04-05T13:06:44.857Z,2.22
2023-04-05T13:09:11.412Z,2.05
2023-04-05T13:11:38.001Z,2.00
2023-04-05T13:14:04.536Z,2.10
2023-04-05T13:16:31.138Z,1.90
2023-04-05T13:18:57.762Z,2.20
2023-04-05T13:21:24.259Z,1.95
2023-04-05T13:23:50.883Z,1.92
2023-04-05T13:26:17.426Z,1.90
2023-04-05T13:28:43.955Z,2.28
2023-04-05T13:31:11.654Z,1.98
2023-04-05T13:33:39.116Z,1.90
2023-04-05T13:36:06.178Z,2.00
2023-04-05T13:38:32.677Z,2.00
2023-04-05T13:40:59.219Z,2.25
2023-04-05T13:43:27.943Z,2.30
2023-04-05T13:45:54.596Z,2.28
2023-04-05T13:48:21.197Z,2.17
2023-04-05T13:50:47.805Z,2.20
2023-04-05T13:53:14.452Z,2.05
2023-04-05T13:55:41.161Z,2.00
2023-04-05T13:58:07.773Z,2.05
2023-04-05T14:00:34.351Z,1.95
2023-04-05T14:03:01.001Z,2.10
2023-04-05T14:05:27.628Z,1.95
2023-04-05T14:07:54.186Z,1.92
2023-04-05T14:10:21.692Z,1.95
2023-04-05T14:12:48.393Z,2.50
2023-04-05T14:15:14.940Z,2.03
2023-04-05T14:17:41.613Z,2.15
2023-04-05T14:20:08.455Z,2.10
2023-04-05T14:22:35.055Z,1.85
2023-04-05T14:25:01.614Z,1.85
2023-04-05T14:27:28.499Z,2.20
2023-04-05T14:29:58.540Z,1.85
2023-04-05T14:32:25.915Z,1.77
2023-04-05T14:34:52.858Z,2.30
2023-04-05T14:37:19.475Z,2.13
2023-04-05T14:39:46.955Z,2.22
2023-04-05T14:42:13.495Z,1.77
2023-04-05T14:44:39.989Z,2.45
2023-04-05T14:47:06.544Z,1.75
2023-04-05T14:49:33.147Z,2.13
2023-04-05T14:51:59.773Z,1.98
2023-04-05T14:54:26.362Z,2.22
2023-04-05T14:56:53.172Z,2.03
2023-04-05T14:59:19.706Z,2.05
2023-04-05T15:01:47.361Z,1.83
2023-04-05T15:04:14.511Z,1.95
2023-04-05T15:06:42.283Z,1.65
2023-04-05T15:09:08.850Z,1.98
2023-04-05T15:11:39.325Z,2.22
2023-04-05T15:14:08.587Z,1.88
2023-04-05T15:16:38.143Z,2.08
2023-04-05T15:19:04.775Z,2.25
2023-04-05T15:21:31.349Z,2.05
2023-04-05T15:23:57.911Z,1.70
2023-04-05T15:26:24.566Z,2.10
2023-04-05T15:28:51.202Z,2.15
2023-04-05T15:31:17.751Z,2.20
2023-04-05T15:33:44.321Z,1.83
2023-04-05T15:36:10.984Z,2.10
2023-04-05T15:38:37.641Z,1.80
2023-04-05T15:41:04.270Z,1.70
2023-04-05T15:43:31.457Z,2.25
2023-04-05T15:45:58.092Z,2.25
2023-04-05T15:48:24.687Z,1.90
2023-04-05T15:50:51.246Z,1.83
2023-04-05T15:53:18.068Z,2.28
2023-04-05T15:55:44.697Z,2.25
2023-04-05T15:58:11.207Z,2.17
2023-04-05T16:00:37.956Z,2.25
2023-04-05T16:03:04.554Z,2.17
2023-04-05T16:05:31.102Z,2.15
2023-04-05T16:07:57.741Z,2.10
2023-04-05T16:10:25.580Z,2.42
2023-04-05T16:12:54.887Z,1.80
2023-04-05T16:15:21.558Z,2.75
2023-04-05T16:17:48.079Z,2.10
2023-04-05T16:20:14.729Z,1.77
2023-04-05T16:22:41.507Z,2.10
2023-04-05T16:25:08.172Z,2.00
2023-04-05T16:27:35.994Z,1.88
2023-04-05T16:30:02.556Z,1.90
2023-04-05T16:32:29.047Z,1.95
2023-04-05T16:34:55.529Z,2.47
2023-04-05T16:37:22.067Z,1.60
2023-04-05T16:39:48.635Z,1.85
2023-04-05T16:42:15.587Z,1.60
2023-04-05T16:44:42.048Z,1.63
2023-04-05T16:47:08.749Z,1.70
2023-04-05T16:49:35.359Z,1.92
2023-04-05T16:52:01.829Z,1.75
2023-04-05T16:54:28.475Z,1.63
2023-04-05T16:56:54.972Z,2.13
2023-04-05T16:59:21.750Z,1.80
2023-04-05T17:01:48.464Z,1.80
2023-04-05T17:04:15.060Z,1.67
2023-04-05T17:06:42.450Z,1.88
2023-04-05T17:09:09.140Z,1.67
2023-04-05T17:11:35.722Z,1.75
2023-04-05T17:14:02.255Z,1.20
2023-04-05T17:16:28.934Z,1.50
2023-04-05T17:18:55.526Z,1.80
2023-04-05T17:21:22.815Z,1.60
2023-04-05T17:23:49.342Z,1.80
2023-04-05T17:26:15.853Z,1.73
2023-04-05T17:28:42.376Z,1.85
2023-04-05T17:31:09.219Z,1.80
2023-04-05T17:33:35.735Z,2.00
2023-04-05T17:36:03.026Z,1.73
2023-04-05T17:38:29.614Z,1.88
2023-04-05T17:40:57.748Z,1.60
2023-04-05T17:43:24.500Z,1.65
2023-04-05T17:45:51.918Z,1.75
2023-04-05T17:48:19.200Z,2.10
2023-04-05T17:50:45.982Z,1.80
2023-04-05T17:53:14.512Z,5.75
2023-04-05T17:55:41.418Z,17.42
2023-04-05T17:58:07.922Z,9.10
2023-04-05T18:00:34.754Z,3.30
2023-04-05T18:03:05.912Z,2.95
2023-04-05T18:05:34.494Z,2.22
2023-04-05T18:08:01.372Z,3.10
2023-04-05T18:10:30.650Z,3.30
2023-04-05T18:12:57.509Z,4.65
2023-04-05T18:15:24.139Z,5.13
2023-04-05T18:17:50.845Z,4.55
2023-04-05T18:20:17.629Z,3.85
2023-04-05T18:22:44.286Z,4.22
2023-04-05T18:25:11.854Z,4.30
2023-04-05T18:27:39.575Z,5.30
2023-04-05T18:30:06.909Z,6.72
2023-04-05T18:32:33.490Z,6.18
2023-04-05T18:35:00.329Z,3.90
2023-04-05T18:37:27.283Z,3.03
2023-04-05T18:39:53.954Z,2.75
2023-04-05T18:42:20.497Z,2.55
2023-04-05T18:44:47.517Z,2.55
2023-04-05T18:47:13.968Z,2.35
2023-04-05T18:49:40.622Z,1.95
2023-04-05T18:52:07.521Z,2.33
2023-04-05T18:54:34.015Z,2.22
2023-04-05T18:57:00.734Z,2.47
2023-04-05T18:59:29.316Z,2.22
2023-04-05T19:01:56.449Z,2.20
2023-04-05T19:04:23.180Z,2.50
2023-04-05T19:06:49.829Z,2.60
2023-04-05T19:09:17.224Z,2.63
2023-04-05T19:11:44.087Z,2.60
2023-04-05T19:14:10.812Z,2.10
2023-04-05T19:16:37.560Z,2.97
2023-04-05T19:19:06.252Z,2.22
2023-04-05T19:21:33.080Z,2.15
2023-04-05T19:23:59.865Z,2.17
2023-04-05T19:26:26.624Z,2.05
2023-04-05T19:28:53.524Z,2.70
2023-04-05T19:31:20.049Z,2.70
2023-04-05T19:33:46.902Z,3.15
2023-04-05T19:36:14.557Z,2.97
2023-04-05T19:38:41.668Z,2.60
2023-04-05T19:41:08.365Z,3.40
2023-04-05T19:43:36.679Z,3.88
2023-04-05T19:46:08.135Z,4.68
2023-04-05T19:48:40.253Z,5.13
2023-04-05T19:51:11.383Z,4.78
2023-04-05T19:53:42.498Z,4.22
2023-04-05T19:56:31.010Z,4.68
2023-04-05T19:59:02.968Z,3.50
2023-04-05T20:01:37.456Z,3.65
2023-04-05T20:04:13.141Z,4.22
2023-04-05T20:06:41.196Z,3.92
2023-04-05T20:09:08.064Z,3.80
2023-04-05T20:11:34.819Z,3.55
2023-04-05T20:14:02.727Z,4.30
2023-04-05T20:16:34.596Z,3.80
2023-04-05T20:19:06.335Z,4.43
2023-04-05T20:21:33.611Z,4.50
2023-04-05T20:24:01.446Z,3.72
2023-04-05T20:26:31.438Z,3.15
2023-04-05T20:29:01.341Z,3.40
2023-04-05T20:31:29.429Z,3.05
2023-04-05T20:34:09.670Z,3.10
2023-04-05T20:36:47.403Z,3.40
2023-04-05T20:39:13.956Z,3.00
2023-04-05T20:41:40.772Z,3.03
2023-04-05T20:44:07.690Z,2.88
2023-04-05T20:46:34.556Z,2.47
2023-04-05T20:49:01.280Z,2.42
2023-04-05T20:51:28.051Z,2.60
2023-04-05T20:53:55.469Z,2.53
2023-04-05T20:56:22.040Z,2.85
2023-04-05T20:58:49.288Z,3.40
2023-04-05T21:01:16.035Z,3.50
2023-04-05T21:03:43.298Z,3.15
2023-04-05T21:06:10.399Z,3.45
2023-04-05T21:08:38.919Z,3.47
2023-04-05T21:11:06.031Z,3.50
2023-04-05T21:13:33.300Z,3.63
2023-04-05T21:15:59.997Z,3.35
2023-04-05T21:18:27.051Z,3.83
2023-04-05T21:20:55.459Z,3.45
2023-04-05T21:23:26.938Z,3.60
2023-04-05T21:25:57.411Z,3.80
2023-04-05T21:28:25.510Z,3.78
2023-04-05T21:30:52.472Z,3.45
2023-04-05T21:33:19.617Z,3.42
2023-04-05T21:35:46.344Z,3.70
2023-04-05T21:38:15.061Z,3.35
2023-04-05T21:40:44.472Z,3.80
2023-04-05T21:43:14.526Z,3.90
2023-04-05T21:45:41.086Z,3.35
2023-04-05T21:48:07.884Z,3.70
2023-04-05T21:50:34.510Z,4.72
2023-04-05T21:53:01.004Z,3.85
2023-04-05T21:55:27.597Z,3.85
2023-04-05T21:57:54.225Z,4.47
2023-04-05T22:00:21.119Z,4.80
2023-04-05T22:02:47.669Z,3.97
2023-04-05T22:05:25.717Z,3.78
2023-04-05T22:07:56.649Z,4.43
2023-04-05T22:10:23.305Z,4.45
2023-04-05T22:12:49.905Z,4.40
2023-04-05T22:15:16.635Z,4.43
2023-04-05T22:17:43.272Z,4.07
2023-04-05T22:20:10.113Z,4.25
2023-04-05T22:22:36.664Z,4.15
2023-04-05T22:25:03.373Z,4.25
2023-04-05T22:27:30.172Z,4.75
2023-04-05T22:29:57.077Z,4.65
2023-04-05T22:32:23.716Z,4.75
2023-04-05T22:34:50.469Z,4.32
2023-04-05T22:37:17.013Z,4.47
2023-04-05T22:39:43.524Z,4.35
2023-04-05T22:42:09.967Z,4.57
2023-04-05T22:44:36.432Z,4.32
2023-04-05T22:47:03.150Z,3.85
2023-04-05T22:49:29.694Z,3.67
2023-04-05T22:51:56.504Z,4.03
2023-04-05T22:54:23.140Z,4.05
2023-04-05T22:56:49.678Z,4.05
2023-04-05T22:59:16.398Z,3.90
2023-04-05T23:01:43.086Z,4.43
2023-04-05T23:04:09.817Z,4.30
2023-04-05T23:06:36.605Z,3.03
2023-04-05T23:09:04.811Z,4.32
2023-04-05T23:11:31.391Z,3.42
2023-04-05T23:13:57.997Z,4.07
2023-04-05T23:16:24.545Z,3.20
2023-04-05T23:18:51.321Z,3.38
2023-04-05T23:21:17.898Z,3.60
2023-04-05T23:23:44.402Z,3.72
2023-04-05T23:26:11.036Z,3.90
2023-04-05T23:28:37.607Z,3.20
2023-04-05T23:31:04.321Z,3.17
2023-04-05T23:33:31.272Z,2.97
2023-04-05T23:35:57.885Z,3.08
2023-04-05T23:38:24.482Z,3.55
2023-04-05T23:40:51.248Z,3.08
2023-04-05T23:43:17.765Z,3.13
2023-04-05T23:45:44.281Z,2.95
2023-04-05T23:48:10.828Z,3.00
2023-04-05T23:50:37.300Z,3.28
2023-04-05T23:53:03.892Z,2.95
2023-04-05T23:55:32.555Z,2.95
2023-04-05T23:58:00.163Z,2.72
